Valley Park, Missouri
Current Conditions -  °F | °C
As of 1:54 PM on Thursday 29 Jan 2015 (Local Time) from KSUS Reporting Station
Overcast Overcast  
Wind Chill: 34°   Ceiling: 3500
Heat Index: 42°   Visibility: 10mi
Dew Point: 30°   Wind: 16mph
Humidity: 62%   Direction: 290°WNW
Pressure: 30.19"   Gusts: 25mph
Location:  38.55°N, 90.49°W
Report Text: KSUS 291954Z 29014G22KT 10SM SCT028 BKN035 OVC043 06/M01 A3019 RMK AO2 SLP225 T00561011
Loading
Personal Weather Stations






























Interactive Weather Map New forecast layout! Learn more

10-Day Weather Forecast

Advertisements
Track Severe Weather on mobile